Latest Weather Observations for Canberra

IDN60901

Issued at 6:31 am EDT Monday 18 November 2019 (issued every 10 minutes, with the page automatically refreshed every 10 minutes)

About weather observations | Map of Canberra area stations | Latest observations for Canberra area | Other Formats
Station Details ID: 070351 Name: CANBERRA AIRPORT Lat: -35.31 Lon: 149.20 Height: 577.05 m
Data from the previous 72 hours. | See also: Recent months at Canberra
Date/Time
EDT
Temp
°C
App
Temp
°C
Dew
Point
°C
Rel
Hum
%
Delta-T
°C
Wind Press
QNH
hPa
Press
MSL
hPa
Rain since
9am
mm
Dir  Spd
km/h
Gust
km/h
Spd
kts
Gust
kts
18/06:30am 8.4 7.8 7.5 94 0.4 CALM 0 0 0 0 1018.7 1017.3 0.0
18/06:00am 7.0 4.3 5.8 92 0.6 N 9 11 5 6 1018.4 1017.0 0.0
18/05:30am 7.7 5.6 6.8 94 0.4 E 7 9 4 5 1018.3 1016.9 0.0
18/05:00am 7.6 6.8 6.4 92 0.6 CALM 0 0 0 0 1018.3 1016.9 0.0
18/04:30am 7.7 6.8 6.2 90 0.7 CALM 0 0 0 0 1018.4 1017.0 0.0
18/04:00am 7.9 7.0 6.0 88 0.9 CALM 0 0 0 0 1018.7 1017.3 0.0
18/03:30am 8.9 6.3 6.3 84 1.2 N 9 11 5 6 1018.9 1017.5 0.0
18/03:00am 9.9 7.9 7.0 82 1.4 NNW 7 9 4 5 1019.3 1018.0 0.0
18/02:30am 11.0 9.4 7.9 81 1.6 NE 6 7 3 4 1019.5 1018.2 0.0
18/02:10am 10.8 9.2 7.9 82 1.5 E 6 9 3 5 1019.9 1018.5 0.0
18/02:00am 10.6 9.0 7.8 83 1.4 SE 6 9 3 5 1020.1 1018.7 0.0
18/01:46am 10.2 8.4 7.8 85 1.2 SSE 7 7 4 4 1020.2 1018.8 0.0
18/01:36am 9.5 7.5 7.3 86 1.1 SSE 7 7 4 4 1020.2 1018.8 0.0
18/01:30am 9.0 6.8 6.4 84 1.2 SSE 7 9 4 5 1020.2 1018.8 0.0
18/01:00am 10.5 8.7 7.0 79 1.7 E 6 7 3 4 1020.0 1018.6 0.0
18/12:30am 11.2 9.2 7.1 76 2.0 E 7 9 4 5 1020.5 1019.1 0.0
18/12:00am 11.8 9.5 7.5 75 2.1 ENE 9 11 5 6 1020.7 1019.3 0.0
 
Date/Time
EDT
Temp
°C
App
Temp
°C
Dew
Point
°C
Rel
Hum
%
Delta-T
°C
Wind Press
QNH
hPa
Press
MSL
hPa
Rain since
9am
mm
Dir  Spd
km/h
Gust
km/h
Spd
kts
Gust
kts
17/11:30pm 12.2 10.3 7.5 73 2.4 ENE 7 11 4 6 1020.8 1019.5 0.0
17/11:00pm 12.3 10.1 7.8 74 2.3 E 9 13 5 7 1021.1 1019.8 0.0
17/10:30pm 11.9 9.3 7.8 76 2.1 ESE 11 17 6 9 1021.0 1019.7 0.0
17/10:12pm 11.5 9.2 7.4 76 2.0 E 9 13 5 7 1021.0 1019.7 0.0
17/10:00pm 11.4 8.3 7.3 76 2.0 E 13 20 7 11 1020.9 1019.6 0.0
17/09:30pm 11.7 7.9 7.4 75 2.1 E 17 24 9 13 1020.8 1019.5 0.0
17/09:00pm 12.0 8.1 7.3 73 2.3 E 17 30 9 16 1020.4 1019.0 0.0
17/08:30pm 12.4 7.3 7.5 72 2.5 E 24 35 13 19 1019.9 1018.5 0.0
17/08:02pm 12.8 6.9 7.5 70 2.7 E 28 46 15 25 1019.3 1018.0 0.0
17/08:00pm 12.8 7.3 7.5 70 2.7 E 26 46 14 25 1019.3 1018.0 0.0
17/07:30pm 13.9 6.6 7.4 65 3.3 E 35 50 19 27 1018.2 1016.8 0.0
17/07:00pm 15.3 8.0 7.3 59 4.1 E 35 50 19 27 1017.3 1015.9 0.0
17/06:36pm 16.8 9.9 7.4 54 4.8 E 33 52 18 28 1016.4 1015.0 0.0
17/06:30pm 17.5 9.6 7.8 53 5.1 E 39 52 21 28 1016.3 1014.9 0.0
17/06:00pm 18.8 12.1 7.3 47 6.0 ENE 32 46 17 25 1015.5 1014.1 0.0
17/05:57pm 19.3 13.4 7.4 46 6.2 ENE 28 44 15 24 1015.4 1014.0 0.0
17/05:30pm 23.4 17.9 -2.2 18 11.5 NNW 17 28 9 15 1014.9 1013.5 0.0
17/05:00pm 23.2 16.7 -5.7 14 12.1 N 20 28 11 15 1014.8 1013.4 0.0
17/04:30pm 23.3 15.9 -7.7 12 12.5 NNE 24 33 13 18 1014.6 1013.1 0.0
17/04:00pm 23.7 17.2 -6.3 13 12.5 NNW 20 33 11 18 1014.4 1012.9 0.0
17/03:30pm 23.0 17.2 -5.0 15 11.9 NE 17 24 9 13 1014.4 1012.9 0.0
17/03:00pm 23.3 18.8 -3.1 17 11.6 NW 11 26 6 14 1014.7 1013.2 0.0
17/02:30pm 21.5 17.4 -3.1 19 10.7 WSW 9 15 5 8 1014.8 1013.4 0.0
17/02:00pm 22.9 17.4 -1.9 19 11.1 NW 17 28 9 15 1015.4 1014.0 0.0
17/01:30pm 21.2 16.8 -2.6 20 10.4 WNW 11 20 6 11 1015.8 1014.4 0.0
17/01:00pm 21.1 17.1 -2.0 21 10.2 NW 9 19 5 10 1016.0 1014.6 0.0
17/12:30pm 20.5 15.3 -2.5 21 10.0 W 15 30 8 16 1016.2 1014.7 0.0
17/12:00pm 19.4 15.2 -1.1 25 9.1 WSW 11 17 6 9 1016.5 1015.1 0.0
17/11:30am 19.9 15.9 0.4 27 9.0 W 11 24 6 13 1016.8 1015.4 0.0
17/11:00am 18.9 16.1 3.1 35 7.6 N 7 15 4 8 1017.0 1015.6 0.0
17/10:30am 18.1 14.9 2.8 36 7.3 N 9 15 5 8 1017.0 1015.6 0.0
17/10:00am 16.8 14.3 4.8 45 5.9 N 7 11 4 6 1017.2 1015.8 0.0
17/09:30am 16.5 13.9 6.1 50 5.2 E 9 15 5 8 1017.6 1016.2 0.0
17/09:00am 15.0 12.2 7.1 59 4.0 S 11 15 6 8 1018.0 1016.6 0.0
17/08:30am 14.1 11.9 7.9 66 3.2 WSW 9 15 5 8 1017.6 1016.2 0.0
17/08:23am 13.6 11.8 7.8 68 3.0 W 7 9 4 5 1017.6 1016.2 0.0
17/08:00am 13.7 12.0 8.5 71 2.7 SE 7 11 4 6 1017.3 1015.9 0.0
17/07:30am 12.6 11.0 8.7 77 2.0 S 7 9 4 5 1017.0 1015.6 0.0
17/07:21am 12.1 10.6 8.6 79 1.8 S 6 7 3 4 1016.9 1015.5 0.0
17/07:00am 11.3 9.2 8.2 81 1.6 S 9 11 5 6 1016.7 1015.3 0.0
17/06:30am 10.5 8.7 7.9 84 1.3 ESE 7 7 4 4 1016.3 1014.9 0.0
17/06:21am 10.2 8.5 7.4 83 1.4 ESE 6 9 3 5 1016.2 1014.7 0.0
17/06:00am 10.7 8.6 8.3 85 1.2 SE 9 11 5 6 1016.2 1014.7 0.0
17/05:30am 10.2 8.0 8.0 86 1.1 SE 9 9 5 5 1016.0 1014.6 0.0
17/05:19am 10.8 9.2 8.7 87 1.1 ESE 7 9 4 5 1015.9 1014.5 0.0
17/05:00am 10.8 8.4 8.7 87 1.1 ESE 11 13 6 7 1015.6 1014.2 0.0
17/04:30am 10.3 8.6 8.4 88 1.0 SE 7 9 4 5 1015.8 1014.4 0.0
17/04:00am 9.6 8.5 7.0 84 1.3 E 2 9 1 5 1015.7 1014.3 0.0
17/03:30am 10.6 8.6 8.5 87 1.1 E 9 11 5 6 1015.8 1014.4 0.0
17/03:00am 10.1 7.9 7.7 85 1.2 E 9 11 5 6 1016.3 1014.9 0.0
17/02:30am 10.3 8.1 7.7 84 1.3 ESE 9 11 5 6 1016.4 1015.0 0.0
17/02:00am 10.4 8.3 6.7 78 1.8 E 7 9 4 5 1016.5 1015.1 0.0
17/01:30am 11.1 8.7 7.0 76 2.0 E 9 11 5 6 1016.5 1015.1 0.0
17/01:00am 12.4 12.0 8.3 76 2.1 CALM 0 0 0 0 1016.8 1015.4 0.0
17/12:30am 12.4 9.5 8.1 75 2.2 E 13 15 7 8 1016.2 1014.7 0.0
17/12:00am 12.5 10.1 7.0 69 2.7 ENE 9 11 5 6 1016.7 1015.3 0.0
 
Date/Time
EDT
Temp
°C
App
Temp
°C
Dew
Point
°C
Rel
Hum
%
Delta-T
°C
Wind Press
QNH
hPa
Press
MSL
hPa
Rain since
9am
mm
Dir  Spd
km/h
Gust
km/h
Spd
kts
Gust
kts
16/11:30pm 13.4 11.5 7.4 67 3.0 E 7 11 4 6 1016.7 1015.3 0.0
16/11:00pm 13.6 11.6 7.2 65 3.2 SE 7 9 4 5 1016.5 1015.1 0.0
16/10:30pm 14.1 10.6 7.2 63 3.5 NE 15 19 8 10 1016.3 1014.9 0.0
16/10:00pm 15.1 9.5 5.3 52 4.8 NE 24 32 13 17 1016.3 1014.9 0.0
16/09:30pm 17.0 11.8 -6.1 20 9.0 NNE 13 15 7 8 1015.9 1014.5 0.0
16/09:00pm 17.5 11.8 -7.0 18 9.5 NNW 15 20 8 11 1015.4 1014.0 0.0
16/08:30pm 17.8 13.3 -6.8 18 9.6 W 9 15 5 8 1015.2 1013.8 0.0
16/08:00pm 18.5 11.9 -7.0 17 9.9 WNW 20 30 11 16 1015.1 1013.7 0.0
16/07:30pm 19.0 12.3 -8.2 15 10.4 WNW 20 28 11 15 1014.8 1013.4 0.0
16/07:00pm 19.6 14.1 -5.3 18 10.2 WNW 15 28 8 15 1014.8 1013.4 0.0
16/06:30pm 20.4 14.2 -4.7 18 10.5 WNW 19 28 10 15 1014.3 1012.8 0.0
16/06:00pm 20.9 13.7 -5.0 17 10.8 WNW 24 35 13 19 1013.9 1012.5 0.0
16/05:30pm 21.5 12.7 -4.5 17 11.0 NW 33 46 18 25 1013.6 1012.2 0.0
16/05:00pm 22.5 13.7 -6.3 14 11.9 NW 32 43 17 23 1013.4 1012.0 0.0
16/04:40pm 22.7 14.2 -3.6 17 11.4 WNW 32 50 17 27 1013.2 1011.8 0.0
16/04:30pm 23.2 14.5 -4.8 15 11.9 WNW 32 44 17 24 1013.1 1011.6 0.0
16/04:00pm 24.0 15.2 -4.2 15 12.3 NW 33 46 18 25 1012.9 1011.4 0.0
16/03:30pm 24.2 16.1 -3.2 16 12.2 NNW 30 41 16 22 1013.1 1011.6 0.0
16/03:13pm 24.3 15.7 -8.0 11 13.1 NW 30 48 16 26 1013.3 1011.9 0.0
16/03:00pm 24.3 16.3 -5.8 13 12.7 NW 28 44 15 24 1013.2 1011.8 0.0
16/02:45pm 24.7 16.2 -3.6 15 12.5 NW 32 50 17 27 1013.3 1011.9 0.0
16/02:30pm 23.6 15.4 -3.7 16 11.9 NW 30 48 16 26 1013.4 1012.0 0.0
16/02:23pm 24.2 16.2 -2.4 17 12.0 NNW 30 48 16 26 1013.5 1012.1 0.0
16/02:00pm 24.0 15.7 -1.8 18 11.7 NNW 32 44 17 24 1013.9 1012.5 0.0
16/01:35pm 22.4 14.6 -1.0 21 10.7 N 30 48 16 26 1014.3 1012.8 0.0
16/01:30pm 23.3 15.4 -1.6 19 11.3 N 30 48 16 26 1014.4 1012.9 0.0
16/01:00pm 21.8 14.4 -0.8 22 10.3 NNW 28 41 15 22 1015.0 1013.6 0.0
16/12:30pm 21.4 15.0 -1.8 21 10.3 NW 22 32 12 17 1015.2 1013.8 0.0
16/12:00pm 21.3 15.1 -0.6 23 10.0 NNW 22 41 12 22 1015.3 1013.9 0.0
16/11:30am 20.1 15.0 0.5 27 9.0 NNW 17 26 9 14 1015.7 1014.3 0.0
16/11:00am 20.4 16.4 0.8 27 9.1 NNW 11 33 6 18 1015.8 1014.4 0.0
16/10:30am 18.5 13.8 0.6 30 8.2 NW 15 28 8 15 1016.0 1014.6 0.0
16/10:00am 17.6 13.6 0.3 31 7.8 WSW 11 17 6 9 1016.0 1014.6 0.0
16/09:30am 17.7 12.9 0.4 31 7.8 W 15 20 8 11 1016.0 1014.6 0.0
16/09:00am 16.4 13.5 2.8 40 6.4 NE 7 13 4 7 1015.9 1014.5 0.0
16/08:30am 15.4 12.2 3.2 44 5.7 NNW 9 13 5 7 1015.9 1014.5 0.0
16/08:00am 14.7 12.0 3.8 48 5.1 N 7 11 4 6 1015.6 1014.2 0.0
16/07:30am 13.8 10.8 3.9 51 4.7 ENE 9 11 5 6 1015.4 1014.0 0.0
16/07:00am 12.5 10.4 4.0 56 4.0 NNE 4 9 2 5 1015.2 1013.8 0.0
16/06:30am 11.3 8.3 4.3 62 3.3 SE 9 15 5 8 1015.1 1013.7 0.0
16/06:00am 10.4 8.0 4.3 66 2.8 NE 6 7 3 4 1014.6 1013.1 0.0
16/05:30am 9.0 5.4 3.0 66 2.7 ENE 11 15 6 8 1014.1 1012.7 0.0
16/05:00am 9.3 6.5 3.3 66 2.7 N 7 13 4 7 1013.6 1012.2 0.0
16/04:30am 11.3 8.4 4.5 63 3.2 NNE 9 11 5 6 1013.5 1012.1 0.0
16/04:00am 10.1 7.0 3.4 63 3.0 E 9 11 5 6 1013.4 1012.0 0.0
16/03:30am 10.2 6.4 1.8 56 3.7 N 11 13 6 7 1013.2 1011.8 0.0
16/03:00am 12.9 8.7 3.6 53 4.3 N 15 17 8 9 1013.2 1011.8 0.0
16/02:30am 12.3 8.8 3.5 55 4.1 NNE 11 13 6 7 1013.6 1012.2 0.0
16/02:00am 11.6 7.5 2.4 53 4.1 NW 13 15 7 8 1013.6 1012.2 0.0
16/01:30am 11.9 7.8 2.1 51 4.4 NW 13 17 7 9 1013.6 1012.2 0.0
16/01:00am 13.1 10.1 1.8 46 5.0 N 7 9 4 5 1013.7 1012.3 0.0
16/12:30am 14.6 10.5 2.2 43 5.7 NNE 13 15 7 8 1013.7 1012.3 0.0
16/12:00am 15.1 10.6 2.0 41 6.0 NE 15 19 8 10 1013.5 1012.1 0.0
 
Date/Time
EDT
Temp
°C
App
Temp
°C
Dew
Point
°C
Rel
Hum
%
Delta-T
°C
Wind Press
QNH
hPa
Press
MSL
hPa
Rain since
9am
mm
Dir  Spd
km/h
Gust
km/h
Spd
kts
Gust
kts
15/11:30pm 14.4 11.2 1.0 40 5.9 NW 7 11 4 6 1013.4 1012.0 0.0
15/11:00pm 16.7 11.7 1.6 36 6.9 WNW 17 22 9 12 1013.2 1011.8 0.0
15/10:30pm 17.3 11.0 1.3 34 7.3 W 24 33 13 18 1013.0 1011.5 0.0
15/10:00pm 17.4 10.6 1.0 33 7.5 W 26 33 14 18 1012.9 1011.4 0.0
15/09:30pm 17.8 12.7 0.9 32 7.7 WNW 17 20 9 11 1012.7 1011.2 0.0
15/09:00pm 18.1 12.6 0.7 31 7.9 WNW 19 26 10 14 1012.3 1010.9 0.0
15/08:30pm 18.3 12.4 -0.5 28 8.4 WNW 20 26 11 14 1011.9 1010.5 0.0
15/08:00pm 19.1 13.8 -0.3 27 8.7 WNW 17 24 9 13 1011.5 1010.0 0.0
15/07:30pm 19.9 13.6 -1.2 24 9.4 WNW 22 33 12 18 1011.1 1009.6 0.0
15/07:00pm 21.3 13.2 -3.2 19 10.6 WNW 30 39 16 21 1010.4 1009.0 0.0
15/06:30pm 22.5 15.2 -3.0 18 11.2 WNW 26 37 14 20 1009.7 1008.2 0.0
15/06:00pm 22.9 14.8 -3.4 17 11.5 WNW 30 44 16 24 1009.4 1007.9 0.0
15/05:54pm 23.0 15.3 -3.3 17 11.5 WNW 28 46 15 25 1009.4 1007.9 0.0
15/05:30pm 23.4 15.6 -3.8 16 11.9 WNW 28 43 15 23 1009.1 1007.6 0.0
15/05:00pm 23.9 15.6 -1.8 18 11.7 NW 32 41 17 22 1009.1 1007.6 0.0
15/04:47pm 23.8 15.4 -1.2 19 11.5 NW 33 52 18 28 1009.2 1007.7 0.0
15/04:30pm 24.0 15.9 -0.3 20 11.4 NW 32 43 17 23 1009.1 1007.6 0.0
15/04:00pm 24.0 16.3 -0.3 20 11.4 W 30 44 16 24 1009.3 1007.8 0.0
15/03:37pm 25.0 16.7 -1.7 17 12.3 W 32 52 17 28 1009.2 1007.7 0.0
15/03:30pm 23.7 15.2 -2.0 18 11.6 WNW 33 48 18 26 1009.3 1007.8 0.0
15/03:00pm 24.3 15.5 -1.5 18 11.9 WNW 35 50 19 27 1009.3 1007.8 0.0
15/02:38pm 24.5 15.7 -1.3 18 11.9 NW 35 61 19 33 1009.4 1007.9 0.0
15/02:30pm 24.5 15.5 0.1 20 11.5 WNW 37 48 20 26 1009.4 1007.9 0.0
15/02:27pm 24.5 15.0 -0.6 19 11.7 WNW 39 52 21 28 1009.4 1007.9 0.0
15/02:05pm 24.9 15.5 -0.3 19 11.9 NW 39 57 21 31 1009.5 1008.0 0.0
15/02:00pm 24.1 14.2 -0.9 19 11.6 NW 41 56 22 30 1009.6 1008.1 0.0
15/01:35pm 23.9 14.6 0.3 21 11.2 WNW 39 57 21 31 1009.6 1008.1 0.0
15/01:30pm 24.2 14.6 1.2 22 11.1 NW 41 57 22 31 1009.6 1008.1 0.0
15/01:17pm 24.5 16.3 2.6 24 10.8 WNW 35 56 19 30 1009.7 1008.2 0.0
15/01:00pm 23.3 13.4 1.6 24 10.5 NW 43 57 23 31 1009.9 1008.4 0.0
15/12:30pm 23.9 14.6 2.7 25 10.5 WNW 41 59 22 32 1010.0 1008.5 0.0
15/12:14pm 22.5 14.0 0.9 24 10.2 WNW 35 54 19 29 1010.3 1008.9 0.0
15/12:00pm 23.1 14.7 1.5 24 10.4 WNW 35 50 19 27 1010.8 1009.3 0.0
15/11:47am 22.8 15.4 1.8 25 10.1 WNW 30 50 16 27 1011.0 1009.5 0.0
15/11:30am 22.5 15.0 3.6 29 9.4 NW 32 48 17 26 1011.2 1009.7 0.0
15/11:24am 22.3 15.5 2.9 28 9.5 WNW 28 48 15 26 1011.2 1009.7 0.0
15/11:00am 21.4 15.1 3.6 31 8.8 WNW 26 35 14 19 1011.5 1010.0 0.0
15/10:30am 19.7 13.7 3.4 34 7.9 WNW 24 35 13 19 1011.9 1010.5 0.0
15/10:02am 19.0 12.2 3.2 35 7.6 NW 28 46 15 25 1012.0 1010.6 0.0
15/10:00am 19.2 12.5 3.8 36 7.5 WNW 28 43 15 23 1012.0 1010.6 0.0
15/09:30am 18.4 12.5 3.8 38 7.1 WNW 24 33 13 18 1012.2 1010.8 0.0
15/09:00am 17.2 12.2 4.5 43 6.2 WNW 20 28 11 15 1012.3 1010.9 0.0
15/08:30am 16.4 11.9 4.4 45 5.8 NW 17 26 9 14 1012.2 1010.8 0.0
15/08:00am 15.7 10.9 4.4 47 5.5 NW 19 30 10 16 1011.9 1010.5 0.0
15/07:30am 14.9 10.0 4.9 51 4.8 NNW 20 28 11 15 1011.8 1010.4 0.0
15/07:00am 13.9 9.0 5.0 55 4.3 NNW 20 28 11 15 1011.6 1010.1 0.0

Latest Capital City Observations: Canberra | Sydney | Melbourne | Brisbane | Adelaide | Perth | Hobart | Darwin

Other formats

Comma delimited format used in spreadsheet applications
http://www.bom.gov.au/fwo/IDN60903/IDN60903.94926.axf

JavaScript Object Notation format (JSON) in row-major order
http://www.bom.gov.au/fwo/IDN60903/IDN60903.94926.json

Data quality

Most of these data are generated automatically and are frequently updated. Quality checks on data are not normally performed. It is possible for incorrect values to appear. Refer to information at About Latest Weather Observations and please check the disclaimer before using these data.